Time;durP1;ratioP1;P1;durP2;ratioP2;P2;SDS_P1;SDS_P2;PMS_P1;PMS_P2;Temp;Humidity;BMP_temperature;BMP_pressure;BME280_temperature;BME280_humidity;BME280_pressure;Samples;Min_cycle;Max_cycle;Signal;HPM_P1;HPM_P2
2023/01/17 00:02:09;;;;;;;;;;;3.40;99.90;;;;;;5056023;28;19936;-70
2023/01/17 00:10:07;;;;;;;;;;;3.30;99.90;;;;;;4990144;28;95734;-71
2023/01/17 00:12:35;;;;;;;;;;;3.30;99.90;;;;;;5036238;28;212264;-69
2023/01/17 00:15:02;;;;;;;;;;;3.30;99.90;;;;;;5039986;28;19939;-71
2023/01/17 00:17:28;;;;;;;;;;;3.30;99.90;;;;;;5038994;28;208692;-72
2023/01/17 01:35:10;;;;;;;;;;;2.50;99.90;;;;;;4987699;28;217606;-72
2023/01/17 01:37:36;;;;;;;;;;;2.60;99.90;;;;;;4992052;28;185278;-71
2023/01/17 01:40:02;;;;;;;;;;;2.60;99.90;;;;;;5041120;28;19925;-71
2023/01/17 01:42:31;;;;;;;;;;;2.50;99.90;;;;;;5020406;28;213665;-71
2023/01/17 01:44:57;;;;;;;;;;;2.60;99.90;;;;;;4978294;28;19932;-71
2023/01/17 01:47:24;;;;;;;;;;;2.50;99.90;;;;;;5052301;28;19928;-71
2023/01/17 01:49:50;;;;;;;;;;;2.50;99.90;;;;;;4939228;28;243245;-72
2023/01/17 01:52:18;;;;;;;;;;;2.50;99.90;;;;;;5039522;28;19938;-71
2023/01/17 01:54:47;;;;;;;;;;;2.60;99.90;;;;;;4963683;28;208101;-71
2023/01/17 01:57:16;;;;;;;;;;;2.50;99.90;;;;;;5031626;28;19933;-70
2023/01/17 01:59:44;;;;;;;;;;;2.50;99.90;;;;;;4980566;28;207667;-70
2023/01/17 02:02:11;;;;;;;;;;;2.50;99.90;;;;;;5047781;28;20404;-71
2023/01/17 02:04:37;;;;;;;;;;;2.40;99.90;;;;;;4937411;28;216910;-71
2023/01/17 02:07:24;;;;;;;;;;;2.40;99.90;;;;;;5053949;28;19940;-72
2023/01/17 02:09:51;;;;;;;;;;;2.40;99.90;;;;;;4974950;28;213184;-71
2023/01/17 02:12:17;;;;;;;;;;;2.30;99.90;;;;;;5053253;28;20774;-71
2023/01/17 02:14:44;;;;;;;;;;;2.40;99.90;;;;;;4967915;28;19954;-72
2023/01/17 02:17:29;;;;;;;;;;;2.40;99.90;;;;;;5036617;28;19929;-71
2023/01/17 02:20:04;;;;;;;;;;;2.50;99.90;;;;;;4973603;28;206087;-71
2023/01/17 02:22:33;;;;;;;;;;;2.50;99.90;;;;;;5019767;28;214071;-70
2023/01/17 02:24:58;;;;;;;;;;;2.50;99.90;;;;;;4991660;28;238788;-70
2023/01/17 02:27:27;;;;;;;;;;;2.50;99.90;;;;;;5027209;28;226755;-71
2023/01/17 02:30:12;;;;;;;;;;;2.50;99.90;;;;;;4994831;28;209386;-71
2023/01/17 02:32:55;;;;;;;;;;;2.50;99.90;;;;;;4994978;28;207879;-72
2023/01/17 02:35:26;;;;;;;;;;;2.60;99.90;;;;;;5016666;28;19924;-71
2023/01/17 02:37:59;;;;;;;;;;;2.50;99.90;;;;;;5002954;28;210599;-72
2023/01/17 02:40:34;;;;;;;;;;;2.60;99.90;;;;;;5029727;28;19924;-72
2023/01/17 02:43:04;;;;;;;;;;;2.60;99.90;;;;;;4989546;28;211679;-72
2023/01/17 02:45:30;;;;;;;;;;;2.50;99.90;;;;;;5000571;28;19932;-72
2023/01/17 02:47:56;;;;;;;;;;;2.60;99.90;;;;;;4982247;28;177391;-72
2023/01/17 02:50:28;;;;;;;;;;;2.60;99.90;;;;;;5034176;28;19936;-73
2023/01/17 02:53:21;;;;;;;;;;;2.60;99.90;;;;;;4963492;28;213256;-72
2023/01/17 02:56:23;;;;;;;;;;;2.60;99.90;;;;;;5001001;28;19925;-72
2023/01/17 03:02:27;;;;;;;;;;;2.60;99.90;;;;;;4940272;28;20419;-72
2023/01/17 03:04:56;;;;;;;;;;;2.60;99.90;;;;;;4525728;29;8928027;-73
2023/01/17 03:07:40;;;;;;;;;;;2.60;99.90;;;;;;4927556;29;19930;-72
2023/01/17 03:17:05;;;;;;;;;;;2.50;99.90;;;;;;4815877;29;19939;-72
2023/01/17 03:19:48;;;;;;;;;;;2.40;99.90;;;;;;4464334;29;10002996;-72
2023/01/17 03:23:04;;;;;;;;;;;2.40;99.90;;;;;;4388719;27;17492687;-72
2023/01/17 03:25:43;;;;;;;;;;;2.40;99.90;;;;;;4978761;28;196429;-72
2023/01/17 03:28:23;;;;;;;;;;;2.40;99.90;;;;;;4941717;28;233111;-72
2023/01/17 03:31:26;;;;;;;;;;;;;;;;;;;;;
2023/01/17 03:33:59;;;;;;;;;;;2.40;99.90;;;;;;4888838;28;3012078;-72
2023/01/17 03:37:15;;;;;;;;;;;2.30;99.90;;;;;;4963554;28;157671;-71
2023/01/17 03:40:24;;;;;;;;;;;2.40;99.90;;;;;;4880882;28;207799;-71
2023/01/17 03:45:59;;;;;;;;;;;;;;;;;;;;;
2023/01/17 03:48:40;;;;;;;;;;;2.40;99.90;;;;;;4902057;28;288822;-71
2023/01/17 03:51:06;;;;;;;;;;;2.40;99.90;;;;;;4959020;28;20426;-70
2023/01/17 03:53:32;;;;;;;;;;;2.50;99.90;;;;;;4923756;28;166607;-71
2023/01/17 03:55:58;;;;;;;;;;;2.50;99.90;;;;;;4970141;28;20355;-72
2023/01/17 03:58:24;;;;;;;;;;;2.50;99.90;;;;;;4912191;28;179123;-70
2023/01/17 04:00:50;;;;;;;;;;;2.50;99.90;;;;;;4963354;28;19930;-71
2023/01/17 04:03:16;;;;;;;;;;;2.40;99.90;;;;;;4941556;28;104525;-70
2023/01/17 04:05:42;;;;;;;;;;;2.40;99.90;;;;;;4987348;28;20460;-70
2023/01/17 04:08:07;;;;;;;;;;;2.30;99.90;;;;;;4988081;28;155949;-71
2023/01/17 04:10:33;;;;;;;;;;;2.30;99.90;;;;;;5051461;28;19924;-70
2023/01/17 04:12:59;;;;;;;;;;;2.20;99.90;;;;;;4998369;28;217937;-71
2023/01/17 04:15:25;;;;;;;;;;;2.20;99.90;;;;;;5076147;28;20399;-71
2023/01/17 04:17:51;;;;;;;;;;;2.10;99.90;;;;;;5014871;28;212649;-70
2023/01/17 04:20:20;;;;;;;;;;;2.10;99.90;;;;;;5083913;28;20704;-70
2023/01/17 04:22:46;;;;;;;;;;;2.10;99.90;;;;;;5014288;28;205514;-70
2023/01/17 04:25:12;;;;;;;;;;;2.00;99.90;;;;;;5072328;28;19931;-70
2023/01/17 04:27:38;;;;;;;;;;;2.00;99.90;;;;;;4990488;28;213348;-70
2023/01/17 04:30:04;;;;;;;;;;;2.00;99.90;;;;;;5038282;28;19925;-71
2023/01/17 04:32:30;;;;;;;;;;;1.90;99.90;;;;;;5019171;28;230222;-70
2023/01/17 04:34:56;;;;;;;;;;;1.90;99.90;;;;;;5033428;28;19928;-71
2023/01/17 04:37:22;;;;;;;;;;;1.90;99.90;;;;;;5029261;28;19950;-70
2023/01/17 04:39:48;;;;;;;;;;;1.90;99.90;;;;;;5018254;28;255501;-70
2023/01/17 04:42:14;;;;;;;;;;;1.90;99.90;;;;;;5056180;28;19978;-70
2023/01/17 04:44:40;;;;;;;;;;;1.90;99.90;;;;;;5005614;28;207492;-70
2023/01/17 04:47:06;;;;;;;;;;;1.80;99.90;;;;;;5062277;28;20620;-70
2023/01/17 04:49:32;;;;;;;;;;;1.80;99.90;;;;;;5013901;28;226842;-70
2023/01/17 04:51:58;;;;;;;;;;;1.80;99.90;;;;;;5061392;28;20415;-70
2023/01/17 04:54:24;;;;;;;;;;;1.80;99.90;;;;;;4971646;28;230202;-69
2023/01/17 04:56:50;;;;;;;;;;;1.70;99.90;;;;;;5057812;28;19927;-70
2023/01/17 04:59:16;;;;;;;;;;;1.70;99.90;;;;;;4991382;28;206159;-69
2023/01/17 05:01:42;;;;;;;;;;;1.70;99.90;;;;;;5061213;28;19960;-70
2023/01/17 05:04:07;;;;;;;;;;;1.70;99.90;;;;;;4954794;28;1371535;-71
2023/01/17 05:06:33;;;;;;;;;;;1.80;99.90;;;;;;5061115;28;19925;-70
2023/01/17 05:09:01;;;;;;;;;;;1.80;99.90;;;;;;5009999;28;154544;-70
2023/01/17 05:11:27;;;;;;;;;;;1.80;99.90;;;;;;5030383;28;19928;-70
2023/01/17 05:13:53;;;;;;;;;;;1.80;99.90;;;;;;5012240;28;213290;-70
2023/01/17 05:16:19;;;;;;;;;;;1.70;99.90;;;;;;5064593;28;20310;-69
2023/01/17 05:18:45;;;;;;;;;;;1.70;99.90;;;;;;5006972;28;111026;-69
2023/01/17 05:21:11;;;;;;;;;;;1.70;99.90;;;;;;5063146;28;19978;-69
2023/01/17 05:23:37;;;;;;;;;;;1.70;99.90;;;;;;5007579;28;207779;-70
2023/01/17 05:26:03;;;;;;;;;;;1.70;99.90;;;;;;5045755;28;19927;-70
2023/01/17 05:28:35;;;;;;;;;;;1.60;99.90;;;;;;5009137;28;207765;-70
2023/01/17 05:31:01;;;;;;;;;;;1.70;99.90;;;;;;5062561;28;19928;-67
2023/01/17 05:33:27;;;;;;;;;;;1.60;99.90;;;;;;5008721;28;221996;-70
2023/01/17 05:35:53;;;;;;;;;;;1.60;99.90;;;;;;5080450;28;19936;-70
2023/01/17 05:38:19;;;;;;;;;;;1.60;99.90;;;;;;5007689;28;207287;-70
2023/01/17 05:40:45;;;;;;;;;;;1.50;99.90;;;;;;5043858;28;20010;-70
2023/01/17 05:43:11;;;;;;;;;;;1.50;99.90;;;;;;4998262;28;207868;-70
2023/01/17 05:45:37;;;;;;;;;;;1.40;99.90;;;;;;5049290;28;20389;-70
2023/01/17 05:48:03;;;;;;;;;;;1.30;99.90;;;;;;4998176;28;209910;-70
2023/01/17 05:50:36;;;;;;;;;;;1.30;99.90;;;;;;5027546;28;19925;-69
2023/01/17 05:53:06;;;;;;;;;;;1.30;99.90;;;;;;4999705;28;221506;-70
2023/01/17 05:55:33;;;;;;;;;;;1.20;99.90;;;;;;5028012;28;20560;-71
2023/01/17 05:57:59;;;;;;;;;;;1.10;99.90;;;;;;5008225;28;215929;-69
2023/01/17 06:00:25;;;;;;;;;;;1.10;99.90;;;;;;5056439;28;19936;-70
2023/01/17 06:02:52;;;;;;;;;;;1.10;99.90;;;;;;4998732;28;219291;-70
2023/01/17 06:05:18;;;;;;;;;;;1.00;99.90;;;;;;5059055;28;19924;-69
2023/01/17 06:07:45;;;;;;;;;;;1.00;99.90;;;;;;4965002;28;222735;-70
2023/01/17 06:10:13;;;;;;;;;;;1.00;99.90;;;;;;5035912;28;19925;-70
2023/01/17 06:12:39;;;;;;;;;;;1.00;99.90;;;;;;5003213;28;211874;-70
2023/01/17 06:15:06;;;;;;;;;;;1.00;99.90;;;;;;5067720;28;19924;-69
2023/01/17 06:17:31;;;;;;;;;;;1.00;99.90;;;;;;4999849;28;266948;-70
2023/01/17 06:19:57;;;;;;;;;;;0.90;99.90;;;;;;5031373;28;182459;-70
2023/01/17 06:22:23;;;;;;;;;;;0.90;99.90;;;;;;5047857;28;207419;-69
2023/01/17 06:24:49;;;;;;;;;;;1.00;99.90;;;;;;5025916;28;41856;-70
2023/01/17 06:27:15;;;;;;;;;;;0.90;99.90;;;;;;5023529;28;19925;-70
2023/01/17 06:29:41;;;;;;;;;;;0.90;99.90;;;;;;5001578;28;205567;-69
2023/01/17 06:32:07;;;;;;;;;;;0.80;99.90;;;;;;5062053;28;20426;-70
2023/01/17 06:34:36;;;;;;;;;;;0.90;99.90;;;;;;5012056;28;219495;-70
2023/01/17 06:37:02;;;;;;;;;;;0.90;99.90;;;;;;5063645;28;20558;-71
2023/01/17 06:39:28;;;;;;;;;;;0.90;99.90;;;;;;4992581;28;209297;-70
2023/01/17 06:41:54;;;;;;;;;;;0.90;99.90;;;;;;5039483;28;19950;-70
2023/01/17 06:44:20;;;;;;;;;;;1.00;99.90;;;;;;5012023;28;211354;-71
2023/01/17 06:46:46;;;;;;;;;;;0.80;99.90;;;;;;5041648;28;19924;-70
2023/01/17 06:49:13;;;;;;;;;;;0.80;99.90;;;;;;5007595;28;212162;-70
2023/01/17 06:51:39;;;;;;;;;;;0.80;99.90;;;;;;5057979;28;19935;-70
2023/01/17 06:54:05;;;;;;;;;;;0.90;99.90;;;;;;4895970;28;3003235;-71
2023/01/17 06:56:31;;;;;;;;;;;0.90;99.90;;;;;;5015777;28;19928;-70
2023/01/17 06:58:57;;;;;;;;;;;0.90;99.90;;;;;;4993170;28;209689;-70
2023/01/17 07:01:23;;;;;;;;;;;0.90;99.90;;;;;;5025345;28;20395;-72
2023/01/17 07:03:51;;;;;;;;;;;0.90;99.90;;;;;;4961051;28;201498;-70
2023/01/17 07:06:17;;;;;;;;;;;0.90;99.90;;;;;;5030364;28;19925;-70
2023/01/17 07:08:43;;;;;;;;;;;0.90;99.90;;;;;;5000188;28;211482;-71
2023/01/17 07:11:09;;;;;;;;;;;0.90;99.90;;;;;;5063766;28;19925;-70
2023/01/17 07:13:36;;;;;;;;;;;1.00;99.90;;;;;;4998840;28;194006;-71
2023/01/17 07:16:08;;;;;;;;;;;0.90;99.90;;;;;;5065843;28;19925;-71
2023/01/17 07:18:34;;;;;;;;;;;0.90;99.90;;;;;;4998697;28;199053;-69
2023/01/17 07:21:00;;;;;;;;;;;0.90;99.90;;;;;;5040269;28;19924;-71
2023/01/17 07:23:26;;;;;;;;;;;1.00;99.90;;;;;;5012260;28;215253;-70
2023/01/17 07:25:53;;;;;;;;;;;1.00;99.90;;;;;;5060543;28;19951;-71
2023/01/17 07:28:19;;;;;;;;;;;1.10;99.90;;;;;;5025072;28;209794;-71
2023/01/17 07:30:46;;;;;;;;;;;1.20;99.90;;;;;;5077182;28;20060;-71
2023/01/17 07:33:11;;;;;;;;;;;1.30;99.90;;;;;;5009011;28;230150;-70
2023/01/17 07:35:37;;;;;;;;;;;1.40;99.90;;;;;;5065584;28;19938;-70
2023/01/17 07:38:04;;;;;;;;;;;1.40;99.90;;;;;;5015534;28;241528;-71
2023/01/17 07:40:31;;;;;;;;;;;1.40;99.90;;;;;;5040775;28;19932;-71
2023/01/17 07:43:00;;;;;;;;;;;1.30;99.90;;;;;;5010123;28;208860;-70
2023/01/17 07:45:26;;;;;;;;;;;1.40;99.90;;;;;;5038862;28;19931;-69
2023/01/17 07:47:55;;;;;;;;;;;1.40;99.90;;;;;;5010077;28;206870;-70
2023/01/17 07:50:21;;;;;;;;;;;1.40;99.90;;;;;;5061044;28;19935;-71
2023/01/17 07:52:50;;;;;;;;;;;1.30;99.90;;;;;;5017172;28;211315;-71
2023/01/17 07:55:17;;;;;;;;;;;1.40;99.90;;;;;;5049026;28;19932;-70
2023/01/17 07:57:46;;;;;;;;;;;1.40;99.90;;;;;;4994827;28;212171;-71
2023/01/17 08:00:12;;;;;;;;;;;1.30;99.90;;;;;;5055316;28;19931;-72
2023/01/17 08:02:38;;;;;;;;;;;1.40;99.90;;;;;;4988541;28;204420;-70
2023/01/17 08:05:04;;;;;;;;;;;1.30;99.90;;;;;;5065989;28;19973;-70
2023/01/17 08:07:30;;;;;;;;;;;1.30;99.90;;;;;;5015691;28;221950;-69
2023/01/17 08:09:56;;;;;;;;;;;1.20;99.90;;;;;;4983114;28;246012;-70
2023/01/17 08:12:24;;;;;;;;;;;1.20;99.90;;;;;;5044179;28;19929;-71
2023/01/17 08:14:50;;;;;;;;;;;1.20;99.90;;;;;;4981659;28;204872;-71
2023/01/17 08:17:17;;;;;;;;;;;1.10;99.90;;;;;;5050648;28;20506;-70
2023/01/17 08:19:43;;;;;;;;;;;1.10;99.90;;;;;;5010051;28;206699;-71
2023/01/17 08:22:10;;;;;;;;;;;1.00;99.90;;;;;;5051992;28;19928;-71
2023/01/17 08:24:40;;;;;;;;;;;1.10;99.90;;;;;;4986885;28;207528;-70
2023/01/17 08:27:07;;;;;;;;;;;1.00;99.90;;;;;;5040450;28;19925;-71
2023/01/17 08:29:34;;;;;;;;;;;0.90;99.90;;;;;;4997528;28;236122;-71
2023/01/17 08:32:00;;;;;;;;;;;0.90;99.90;;;;;;5046058;28;19925;-71
2023/01/17 08:34:26;;;;;;;;;;;1.00;99.90;;;;;;4977364;28;207063;-70
2023/01/17 08:36:52;;;;;;;;;;;1.00;99.90;;;;;;5025312;28;19983;-71
2023/01/17 08:39:19;;;;;;;;;;;0.90;99.90;;;;;;5004125;28;114014;-72
2023/01/17 08:41:45;;;;;;;;;;;0.80;99.90;;;;;;5049720;28;19940;-71
2023/01/17 08:44:11;;;;;;;;;;;0.90;99.90;;;;;;4982436;28;273983;-71
2023/01/17 08:46:38;;;;;;;;;;;0.80;99.90;;;;;;5055862;28;19928;-71
2023/01/17 08:49:04;;;;;;;;;;;0.90;99.90;;;;;;5009490;28;211144;-71
2023/01/17 08:51:31;;;;;;;;;;;0.90;99.90;;;;;;5053027;28;19932;-70
2023/01/17 08:53:57;;;;;;;;;;;0.90;99.90;;;;;;4989507;28;176618;-71
2023/01/17 08:56:23;;;;;;;;;;;0.90;99.90;;;;;;5047734;28;19925;-71
2023/01/17 08:58:48;;;;;;;;;;;0.90;99.90;;;;;;5019305;28;73031;-71
2023/01/17 09:01:15;;;;;;;;;;;1.00;99.90;;;;;;5062021;28;19931;-71
2023/01/17 09:03:40;;;;;;;;;;;1.10;99.90;;;;;;5014290;28;209923;-72
2023/01/17 09:06:08;;;;;;;;;;;1.10;99.90;;;;;;5065065;28;19927;-70
2023/01/17 09:08:34;;;;;;;;;;;1.20;99.90;;;;;;5018311;28;227191;-71
2023/01/17 09:11:07;;;;;;;;;;;1.20;99.90;;;;;;5074891;28;19924;-71
2023/01/17 09:13:33;;;;;;;;;;;1.30;99.90;;;;;;4976479;28;166980;-72
2023/01/17 09:16:00;;;;;;;;;;;1.50;99.90;;;;;;5044511;28;19925;-72
2023/01/17 09:18:26;;;;;;;;;;;1.50;99.90;;;;;;4985724;28;180026;-70
2023/01/17 09:20:57;;;;;;;;;;;1.50;99.90;;;;;;5037267;28;19925;-72
2023/01/17 09:23:24;;;;;;;;;;;1.50;99.90;;;;;;5001058;28;214460;-72
2023/01/17 09:25:59;;;;;;;;;;;1.50;99.90;;;;;;5065073;28;19924;-72
2023/01/17 09:28:26;;;;;;;;;;;1.50;99.90;;;;;;4973283;28;208855;-72
2023/01/17 09:30:52;;;;;;;;;;;1.50;99.90;;;;;;5066350;28;19931;-72
2023/01/17 09:33:18;;;;;;;;;;;1.50;99.90;;;;;;4989439;28;151187;-73
2023/01/17 09:35:45;;;;;;;;;;;1.50;99.90;;;;;;5040714;28;20029;-72
2023/01/17 09:38:11;;;;;;;;;;;1.50;99.90;;;;;;4998136;28;195749;-72
2023/01/17 09:40:40;;;;;;;;;;;1.60;99.90;;;;;;5018450;28;19932;-72
2023/01/17 09:43:12;;;;;;;;;;;1.60;99.90;;;;;;4981895;28;211166;-73
2023/01/17 09:45:37;;;;;;;;;;;1.70;99.90;;;;;;5062061;28;20385;-72
2023/01/17 09:48:07;;;;;;;;;;;1.70;99.90;;;;;;5010101;28;209079;-73
2023/01/17 09:50:48;;;;;;;;;;;1.70;99.90;;;;;;5050477;28;20309;-72
2023/01/17 09:53:17;;;;;;;;;;;1.80;99.90;;;;;;4995620;28;207935;-73
2023/01/17 09:55:47;;;;;;;;;;;1.90;99.90;;;;;;5049504;28;19932;-73
2023/01/17 09:58:18;;;;;;;;;;;1.90;99.90;;;;;;5003380;28;209097;-73
2023/01/17 10:00:47;;;;;;;;;;;1.90;99.90;;;;;;5034121;28;19931;-72
2023/01/17 10:03:48;;;;;;;;;;;2.10;99.90;;;;;;4994105;28;208657;-71
2023/01/17 10:06:21;;;;;;;;;;;2.20;99.90;;;;;;5001687;28;19929;-73
2023/01/17 10:08:47;;;;;;;;;;;2.20;99.90;;;;;;4965368;28;24042;-72
2023/01/17 10:11:22;;;;;;;;;;;2.30;99.90;;;;;;5004092;28;19992;-72
2023/01/17 10:14:08;;;;;;;;;;;2.20;99.90;;;;;;4945746;28;205675;-72
2023/01/17 10:16:43;;;;;;;;;;;2.30;99.90;;;;;;5022168;28;19925;-73
2023/01/17 10:19:11;;;;;;;;;;;2.40;99.90;;;;;;4953853;28;209214;-72
2023/01/17 10:21:40;;;;;;;;;;;2.30;99.90;;;;;;5003250;28;19933;-72
2023/01/17 10:24:24;;;;;;;;;;;2.40;99.90;;;;;;4931479;28;205684;-72
2023/01/17 10:26:52;;;;;;;;;;;2.50;99.90;;;;;;4989586;28;19944;-73
2023/01/17 10:29:18;;;;;;;;;;;2.50;99.90;;;;;;4938905;28;174763;-73
2023/01/17 10:31:50;;;;;;;;;;;2.50;99.90;;;;;;4995443;28;20021;-72
2023/01/17 10:34:21;;;;;;;;;;;2.60;99.90;;;;;;4916128;28;218130;-72
2023/01/17 10:36:51;;;;;;;;;;;2.60;99.90;;;;;;5001033;28;19929;-74
2023/01/17 10:39:21;;;;;;;;;;;2.70;99.90;;;;;;4947499;28;207913;-72
2023/01/17 10:41:56;;;;;;;;;;;2.70;99.90;;;;;;5041057;28;20386;-72
2023/01/17 10:44:22;;;;;;;;;;;2.70;99.90;;;;;;4988611;28;183785;-72
2023/01/17 10:46:48;;;;;;;;;;;2.80;99.90;;;;;;5049345;28;19933;-73
2023/01/17 10:49:22;;;;;;;;;;;2.80;99.90;;;;;;4993103;28;227068;-72
2023/01/17 10:51:59;;;;;;;;;;;2.80;99.90;;;;;;5062417;28;19925;-72
2023/01/17 10:54:38;;;;;;;;;;;2.90;99.90;;;;;;4984961;28;191450;-72
2023/01/17 10:57:04;;;;;;;;;;;3.00;99.90;;;;;;5047032;28;19933;-71
2023/01/17 10:59:31;;;;;;;;;;;3.00;99.90;;;;;;5011304;28;206879;-71
2023/01/17 11:01:57;;;;;;;;;;;3.10;99.90;;;;;;5075020;28;19929;-71
2023/01/17 11:04:35;;;;;;;;;;;3.20;99.90;;;;;;4972282;28;103528;-71
2023/01/17 11:07:13;;;;;;;;;;;3.20;99.90;;;;;;5040317;28;19932;-71
2023/01/17 11:09:40;;;;;;;;;;;3.10;99.90;;;;;;4989608;28;205398;-71
2023/01/17 11:12:24;;;;;;;;;;;3.10;99.90;;;;;;5043964;28;19925;-71
2023/01/17 11:15:06;;;;;;;;;;;3.20;99.90;;;;;;5001617;28;206657;-71
2023/01/17 11:17:32;;;;;;;;;;;3.20;99.90;;;;;;5021477;28;211937;-70
2023/01/17 11:20:07;;;;;;;;;;;3.20;99.90;;;;;;5015727;28;208466;-71
2023/01/17 11:22:34;;;;;;;;;;;3.30;99.90;;;;;;5002236;28;206469;-71
2023/01/17 11:25:00;;;;;;;;;;;3.30;99.90;;;;;;5055375;28;19928;-71
2023/01/17 11:27:27;;;;;;;;;;;3.30;99.90;;;;;;5018162;28;206992;-71
2023/01/17 11:30:02;;;;;;;;;;;3.40;99.90;;;;;;4987281;28;205623;-70
2023/01/17 11:32:32;;;;;;;;;;;3.50;99.90;;;;;;5029378;28;207395;-69
2023/01/17 11:35:04;;;;;;;;;;;3.60;99.90;;;;;;4955926;28;202514;-71
2023/01/17 11:37:30;;;;;;;;;;;3.70;99.90;;;;;;5014872;28;215900;-71
2023/01/17 11:40:26;;;;;;;;;;;3.80;99.90;;;;;;5014268;28;96179;-70
2023/01/17 11:43:10;;;;;;;;;;;3.80;99.90;;;;;;4986520;28;166132;-71
2023/01/17 11:45:40;;;;;;;;;;;3.80;99.90;;;;;;5058394;28;20397;-71
2023/01/17 11:48:06;;;;;;;;;;;3.80;99.90;;;;;;4988499;28;208010;-70
2023/01/17 11:50:33;;;;;;;;;;;3.80;99.90;;;;;;5033584;28;19947;-71
2023/01/17 11:53:11;;;;;;;;;;;3.80;99.90;;;;;;5000190;28;213838;-71
2023/01/17 11:55:37;;;;;;;;;;;3.80;99.90;;;;;;5037764;28;20625;-71
2023/01/17 11:58:03;;;;;;;;;;;3.90;99.90;;;;;;4980850;28;232650;-70
2023/01/17 12:00:33;;;;;;;;;;;3.90;99.90;;;;;;5052973;28;19935;-70
2023/01/17 12:03:23;;;;;;;;;;;3.90;99.90;;;;;;4976257;28;207165;-70
2023/01/17 12:06:28;;;;;;;;;;;4.00;99.90;;;;;;5028667;28;19931;-70
2023/01/17 12:09:01;;;;;;;;;;;4.20;99.90;;;;;;4928706;28;176875;-70
2023/01/17 12:11:34;;;;;;;;;;;4.20;99.90;;;;;;4959650;28;19937;-70
2023/01/17 12:14:24;;;;;;;;;;;4.30;99.90;;;;;;4930349;28;229387;-70
2023/01/17 12:16:56;;;;;;;;;;;4.30;99.90;;;;;;4966889;28;20080;-69
2023/01/17 12:19:42;;;;;;;;;;;4.30;99.90;;;;;;4917030;28;218823;-69
2023/01/17 12:22:34;;;;;;;;;;;4.30;99.90;;;;;;4981395;28;19930;-70
2023/01/17 12:25:06;;;;;;;;;;;4.30;99.90;;;;;;4876259;28;211282;-69
2023/01/17 12:27:36;;;;;;;;;;;4.40;99.90;;;;;;4937068;28;207063;-70
2023/01/17 12:30:11;;;;;;;;;;;4.60;99.90;;;;;;4924726;28;19941;-70
2023/01/17 12:32:47;;;;;;;;;;;6.30;99.90;;;;;;4934174;28;178559;-70
2023/01/17 12:35:16;;;;;;;;;;;7.10;99.90;;;;;;4980289;28;20381;-70
2023/01/17 12:37:44;;;;;;;;;;;7.70;99.90;;;;;;4939460;28;35130;-70
2023/01/17 12:40:24;;;;;;;;;;;7.40;99.90;;;;;;5016669;28;19943;-70
2023/01/17 12:43:09;;;;;;;;;;;8.00;99.90;;;;;;4992846;28;207484;-69
2023/01/17 12:45:42;;;;;;;;;;;8.60;99.90;;;;;;5045429;28;19925;-70
2023/01/17 12:48:14;;;;;;;;;;;9.40;99.90;;;;;;4998931;28;207859;-70
2023/01/17 12:51:04;;;;;;;;;;;9.10;99.90;;;;;;5044651;28;19928;-70
2023/01/17 12:53:34;;;;;;;;;;;7.70;99.90;;;;;;4906959;28;3026904;-71
2023/01/17 12:56:06;;;;;;;;;;;8.70;99.90;;;;;;5046262;28;19925;-69
2023/01/17 12:58:38;;;;;;;;;;;8.90;99.50;;;;;;4980284;28;260594;-70
2023/01/17 13:01:10;;;;;;;;;;;9.50;99.00;;;;;;5039086;28;19924;-70
2023/01/17 13:03:46;;;;;;;;;;;9.80;99.40;;;;;;4976944;28;265197;-69
2023/01/17 13:06:24;;;;;;;;;;;10.20;99.40;;;;;;5024303;28;19928;-69
2023/01/17 13:08:53;;;;;;;;;;;10.30;97.20;;;;;;5016596;28;228126;-69
2023/01/17 13:11:26;;;;;;;;;;;10.40;98.70;;;;;;5048983;28;19939;-69
2023/01/17 13:13:56;;;;;;;;;;;10.60;97.00;;;;;;4995854;28;215275;-69
2023/01/17 13:16:28;;;;;;;;;;;10.50;97.40;;;;;;5049703;28;19928;-69
2023/01/17 13:18:55;;;;;;;;;;;10.00;96.90;;;;;;4988037;28;212250;-70
2023/01/17 13:21:31;;;;;;;;;;;9.00;98.60;;;;;;5040062;28;19932;-69
2023/01/17 13:24:04;;;;;;;;;;;9.30;98.40;;;;;;5003947;28;210010;-69
2023/01/17 13:26:30;;;;;;;;;;;8.60;98.50;;;;;;5027083;28;19937;-70
2023/01/17 13:29:15;;;;;;;;;;;9.30;99.70;;;;;;5002630;28;210088;-69
2023/01/17 13:31:50;;;;;;;;;;;9.40;98.50;;;;;;5034731;28;19935;-69
2023/01/17 13:34:26;;;;;;;;;;;10.10;98.30;;;;;;4975578;28;207183;-70
2023/01/17 13:37:06;;;;;;;;;;;10.40;97.30;;;;;;5042863;28;19920;-69
2023/01/17 13:39:32;;;;;;;;;;;10.60;97.70;;;;;;4978861;28;281116;-69
2023/01/17 13:41:58;;;;;;;;;;;10.70;96.60;;;;;;5040294;28;20724;-69
2023/01/17 13:44:26;;;;;;;;;;;11.10;97.60;;;;;;4972245;28;249810;-69
2023/01/17 13:46:56;;;;;;;;;;;10.80;95.90;;;;;;5055277;28;19924;-69
2023/01/17 13:49:28;;;;;;;;;;;10.20;97.10;;;;;;4991412;28;233929;-69
2023/01/17 13:52:10;;;;;;;;;;;10.70;96.50;;;;;;5053504;28;20478;-70
2023/01/17 13:54:47;;;;;;;;;;;11.00;97.00;;;;;;4956907;28;180298;-70
2023/01/17 13:57:23;;;;;;;;;;;11.60;95.10;;;;;;5054988;28;19928;-71
2023/01/17 13:59:52;;;;;;;;;;;11.30;94.20;;;;;;4987390;28;216775;-70
2023/01/17 14:02:30;;;;;;;;;;;11.10;95.60;;;;;;5057734;28;19953;-69
2023/01/17 14:05:08;;;;;;;;;;;11.30;94.90;;;;;;4956658;28;126354;-68
2023/01/17 14:07:36;;;;;;;;;;;10.80;93.60;;;;;;4966060;28;208332;-70
2023/01/17 14:10:23;;;;;;;;;;;10.90;94.20;;;;;;5050311;28;19936;-70
2023/01/17 14:12:49;;;;;;;;;;;10.80;94.00;;;;;;4966057;28;208345;-70
2023/01/17 14:15:18;;;;;;;;;;;10.90;94.00;;;;;;5029502;28;19928;-70
2023/01/17 14:17:54;;;;;;;;;;;10.50;94.30;;;;;;4987941;28;206987;-69
2023/01/17 14:20:27;;;;;;;;;;;10.50;95.00;;;;;;5054597;28;19924;-71
2023/01/17 14:22:53;;;;;;;;;;;10.90;94.70;;;;;;4996627;28;207945;-71
2023/01/17 14:25:21;;;;;;;;;;;11.10;93.70;;;;;;5040194;28;20904;-69
2023/01/17 14:27:48;;;;;;;;;;;10.70;94.20;;;;;;4997161;28;209245;-68
2023/01/17 14:30:32;;;;;;;;;;;9.80;94.90;;;;;;5036446;28;19924;-69
2023/01/17 14:33:01;;;;;;;;;;;8.70;95.80;;;;;;5007996;28;208165;-69
2023/01/17 14:35:28;;;;;;;;;;;7.60;97.20;;;;;;5065777;28;20306;-68
2023/01/17 14:37:56;;;;;;;;;;;6.90;98.10;;;;;;4988776;28;168101;-67
2023/01/17 14:40:25;;;;;;;;;;;6.30;98.60;;;;;;5036515;28;19929;-69
2023/01/17 14:42:58;;;;;;;;;;;6.70;99.50;;;;;;4999973;28;215751;-67
2023/01/17 14:45:28;;;;;;;;;;;7.70;98.60;;;;;;4994400;28;20514;-67
2023/01/17 14:47:55;;;;;;;;;;;6.90;98.30;;;;;;4988271;28;231011;-67
2023/01/17 14:50:25;;;;;;;;;;;6.50;99.10;;;;;;5041104;28;19935;-68
2023/01/17 14:53:14;;;;;;;;;;;6.20;99.60;;;;;;4973761;28;206724;-68
2023/01/17 14:55:46;;;;;;;;;;;5.70;99.90;;;;;;5038980;28;19936;-67
2023/01/17 14:58:18;;;;;;;;;;;5.20;99.90;;;;;;4964676;28;183877;-68
2023/01/17 15:00:45;;;;;;;;;;;5.00;99.90;;;;;;5030821;28;19931;-68
2023/01/17 15:03:11;;;;;;;;;;;4.80;99.90;;;;;;4950420;28;212491;-69
2023/01/17 15:05:41;;;;;;;;;;;4.60;99.90;;;;;;5030078;28;19928;-68
2023/01/17 15:08:14;;;;;;;;;;;4.40;99.90;;;;;;4980839;28;207323;-68
2023/01/17 15:10:59;;;;;;;;;;;4.20;99.90;;;;;;5024772;28;19925;-69
2023/01/17 15:13:36;;;;;;;;;;;4.10;99.90;;;;;;4990331;28;207316;-67
2023/01/17 15:16:07;;;;;;;;;;;4.00;99.90;;;;;;5037784;28;19940;-68
2023/01/17 15:18:36;;;;;;;;;;;3.90;99.90;;;;;;4989032;28;207865;-68
2023/01/17 15:21:03;;;;;;;;;;;3.80;99.90;;;;;;5036818;28;19931;-68
2023/01/17 15:23:33;;;;;;;;;;;3.70;99.90;;;;;;4989905;28;206903;-68
2023/01/17 15:26:00;;;;;;;;;;;3.60;99.90;;;;;;5023844;28;19936;-68
2023/01/17 15:28:26;;;;;;;;;;;3.50;99.90;;;;;;4987940;28;254325;-68
2023/01/17 15:30:59;;;;;;;;;;;3.50;99.90;;;;;;5044393;28;19944;-69
2023/01/17 15:33:25;;;;;;;;;;;3.40;99.90;;;;;;5011384;28;210244;-69
2023/01/17 15:35:58;;;;;;;;;;;3.40;99.90;;;;;;5061416;28;20011;-70
2023/01/17 15:38:25;;;;;;;;;;;3.30;99.90;;;;;;4995924;28;209137;-67
2023/01/17 15:40:51;;;;;;;;;;;3.20;99.90;;;;;;5039137;28;19929;-67
2023/01/17 15:43:22;;;;;;;;;;;3.10;99.90;;;;;;4987256;28;209881;-69
2023/01/17 15:45:54;;;;;;;;;;;3.00;99.90;;;;;;5039057;28;20313;-69
2023/01/17 15:48:29;;;;;;;;;;;3.00;99.90;;;;;;4982339;28;210252;-69
2023/01/17 15:50:58;;;;;;;;;;;2.90;99.90;;;;;;5064894;28;20416;-69
2023/01/17 15:53:28;;;;;;;;;;;2.80;99.90;;;;;;5004613;28;213128;-69
2023/01/17 15:55:54;;;;;;;;;;;2.80;99.90;;;;;;5056949;28;19924;-69
2023/01/17 15:58:24;;;;;;;;;;;2.70;99.90;;;;;;5009694;28;207492;-68
2023/01/17 16:00:50;;;;;;;;;;;2.60;99.90;;;;;;5054595;28;19929;-69
2023/01/17 16:03:30;;;;;;;;;;;2.60;99.90;;;;;;4997336;28;217976;-70
2023/01/17 16:05:58;;;;;;;;;;;2.60;99.90;;;;;;5063127;28;19930;-70
2023/01/17 16:08:32;;;;;;;;;;;2.50;99.90;;;;;;4988856;28;237250;-70
2023/01/17 16:11:02;;;;;;;;;;;2.40;99.90;;;;;;5051342;28;19924;-70
2023/01/17 16:13:30;;;;;;;;;;;2.40;99.90;;;;;;5001269;28;209939;-67
2023/01/17 16:16:14;;;;;;;;;;;2.40;99.90;;;;;;5060933;28;19947;-69
2023/01/17 16:18:41;;;;;;;;;;;2.30;99.90;;;;;;4995383;28;214295;-68